createdAt,value
2023-08-23T00:00:21.492Z,100755.81
2023-08-23T00:02:53.403Z,100752.22
2023-08-23T00:05:23.506Z,100753.88
2023-08-23T00:07:54.144Z,100748.09
2023-08-23T00:10:24.371Z,100752.75
2023-08-23T00:12:58.371Z,100753.38
2023-08-23T00:15:30.120Z,100754.56
2023-08-23T00:18:00.433Z,100756.22
2023-08-23T00:20:30.797Z,100758.72
2023-08-23T00:23:00.808Z,100765.06
2023-08-23T00:25:30.563Z,100765.97
2023-08-23T00:28:12.575Z,100778.56
2023-08-23T00:30:51.701Z,100783.97
2023-08-23T00:33:21.873Z,100781.94
2023-08-23T00:35:53.651Z,100782.84
2023-08-23T00:38:24.507Z,100782.13
2023-08-23T00:40:54.522Z,100780.88
2023-08-23T00:43:24.484Z,100778.41
2023-08-23T00:45:57.712Z,100771.19
2023-08-23T00:48:31.469Z,100778.16
2023-08-23T00:51:02.121Z,100777.34
2023-08-23T00:53:33.682Z,100774.50
2023-08-23T00:56:03.784Z,100767.03
2023-08-23T00:58:34.881Z,100753.34
2023-08-23T01:01:08.072Z,100756.28
2023-08-23T01:03:43.747Z,100752.59
2023-08-23T01:06:22.348Z,100748.44
2023-08-23T01:09:01.870Z,100744.75
2023-08-23T01:11:45.951Z,100744.97
2023-08-23T01:14:25.029Z,100753.47
2023-08-23T01:16:55.492Z,100755.81
2023-08-23T01:19:37.241Z,100751.03
2023-08-23T01:22:11.990Z,100749.34
2023-08-23T01:24:44.699Z,100749.13
2023-08-23T01:27:15.361Z,100751.88
2023-08-23T01:29:49.620Z,100746.47
2023-08-23T01:32:38.094Z,100746.91
2023-08-23T01:35:19.773Z,100742.34
2023-08-23T01:37:54.850Z,100745.28
2023-08-23T01:40:25.260Z,100741.13
2023-08-23T01:42:56.503Z,100738.19
2023-08-23T01:45:26.640Z,100746.72
2023-08-23T01:47:56.702Z,100736.94
2023-08-23T01:50:28.310Z,100733.63
2023-08-23T01:52:58.571Z,100735.72
2023-08-23T01:55:28.823Z,100733.66
2023-08-23T01:57:59.913Z,100736.56
2023-08-23T02:00:29.951Z,100727.41
2023-08-23T02:03:00.193Z,100730.31
2023-08-23T02:05:33.418Z,100734.47
2023-08-23T02:08:03.772Z,100726.59
2023-08-23T02:10:34.639Z,100733.03
2023-08-23T02:13:08.858Z,100720.34
2023-08-23T02:15:39.508Z,100722.84
2023-08-23T02:18:09.642Z,100728.50
2023-08-23T02:20:41.695Z,100720.34
2023-08-23T02:23:11.807Z,100716.59
2023-08-23T02:25:46.788Z,100722.84
2023-08-23T02:28:17.507Z,100728.47
2023-08-23T02:30:50.133Z,100725.72
2023-08-23T02:33:21.117Z,100721.59
2023-08-23T02:35:51.448Z,100732.03
2023-08-23T02:38:22.144Z,100733.50
2023-08-23T02:40:52.528Z,100732.66
2023-08-23T02:43:26.384Z,100733.28
2023-08-23T02:45:58.159Z,100738.69
2023-08-23T02:48:28.445Z,100736.59
2023-08-23T02:50:58.916Z,100732.41
2023-08-23T02:53:29.340Z,100731.16
2023-08-23T02:55:59.670Z,100721.13
2023-08-23T02:58:29.787Z,100720.47
2023-08-23T03:00:59.911Z,100713.59
2023-08-23T03:03:30.084Z,100717.75
2023-08-23T03:06:00.925Z,100718.59
2023-08-23T03:08:31.057Z,100713.13
2023-08-23T03:11:05.737Z,100698.94
2023-08-23T03:13:36.297Z,100703.50
2023-08-23T03:16:07.247Z,100702.03
2023-08-23T03:18:37.560Z,100700.59
2023-08-23T03:21:09.158Z,100703.50
2023-08-23T03:23:42.379Z,100702.03
2023-08-23T03:26:12.608Z,100697.66
2023-08-23T03:28:42.940Z,100700.34
2023-08-23T03:31:14.441Z,100694.25
2023-08-23T03:33:46.717Z,100687.56
2023-08-23T03:36:16.830Z,100687.16
2023-08-23T03:38:49.712Z,100685.50
2023-08-23T03:41:19.818Z,100677.09
2023-08-23T03:43:50.169Z,100677.09
2023-08-23T03:46:24.602Z,100677.72
2023-08-23T03:48:59.702Z,100670.44
2023-08-23T03:51:30.182Z,100678.53
2023-08-23T03:54:00.618Z,100675.84
2023-08-23T03:56:30.938Z,100669.97
2023-08-23T03:59:02.970Z,100665.38
2023-08-23T04:01:33.198Z,100659.53
2023-08-23T04:04:04.357Z,100657.00
2023-08-23T04:06:36.238Z,100651.56
2023-08-23T04:09:06.429Z,100658.22
2023-08-23T04:11:37.220Z,100641.50
2023-08-23T04:14:08.497Z,100644.41
2023-08-23T04:16:39.216Z,100640.63
2023-08-23T04:19:10.013Z,100630.81
2023-08-23T04:21:40.631Z,100636.41
2023-08-23T04:24:11.084Z,100631.69
2023-08-23T04:26:41.174Z,100630.88
2023-08-23T04:29:13.903Z,100629.31
2023-08-23T04:31:44.818Z,100623.72
2023-08-23T04:34:26.939Z,100619.94
2023-08-23T04:36:56.934Z,100615.72
2023-08-23T04:39:28.185Z,100611.16
2023-08-23T04:42:00.041Z,100597.16
2023-08-23T04:44:32.360Z,100592.31
2023-08-23T04:47:03.931Z,100597.06
2023-08-23T04:49:34.210Z,100597.25
2023-08-23T04:52:05.113Z,100590.06
2023-08-23T04:54:35.329Z,100582.97
2023-08-23T04:57:07.864Z,100573.09
2023-08-23T04:59:38.561Z,100569.53
2023-08-23T05:02:09.793Z,100552.47
2023-08-23T05:04:41.046Z,100562.50
2023-08-23T05:07:17.481Z,100550.69
2023-08-23T05:09:47.677Z,100556.56
2023-08-23T05:12:19.240Z,100549.94
2023-08-23T05:14:49.381Z,100549.41
2023-08-23T05:17:20.793Z,100563.59
2023-08-23T05:19:51.461Z,100558.97
2023-08-23T05:22:22.482Z,100559.66
2023-08-23T05:24:52.521Z,100559.88
2023-08-23T05:27:25.792Z,100562.59
2023-08-23T05:29:59.062Z,100563.63
2023-08-23T05:32:29.484Z,100554.22
2023-08-23T05:35:00.285Z,100542.31
2023-08-23T05:37:30.431Z,100541.47
2023-08-23T05:40:01.505Z,100537.63
2023-08-23T05:42:32.905Z,100544.72
2023-08-23T05:45:02.979Z,100536.59
2023-08-23T05:47:35.511Z,100533.00
2023-08-23T05:50:06.399Z,100537.53
2023-08-23T05:52:36.497Z,100537.97
2023-08-23T05:55:10.133Z,100538.72
2023-08-23T05:57:42.520Z,100538.88
2023-08-23T06:00:13.669Z,100529.97
2023-08-23T06:02:45.739Z,100529.09
2023-08-23T06:05:16.397Z,100522.13
2023-08-23T06:07:47.508Z,100516.84
2023-08-23T06:10:18.706Z,100523.72
2023-08-23T06:12:49.713Z,100515.63
2023-08-23T06:15:19.808Z,100519.69
2023-08-23T06:17:51.995Z,100510.13
2023-08-23T06:20:22.534Z,100500.81
2023-08-23T06:22:52.863Z,100493.63
2023-08-23T06:25:23.254Z,100492.78
2023-08-23T06:27:53.672Z,100485.50
2023-08-23T06:30:24.555Z,100500.47
2023-08-23T06:32:54.634Z,100507.56
2023-08-23T06:35:26.827Z,100499.06
2023-08-23T06:37:56.843Z,100508.28
2023-08-23T06:40:27.416Z,100509.50
2023-08-23T06:42:57.629Z,100513.91
2023-08-23T06:45:28.526Z,100506.53
2023-08-23T06:47:58.619Z,100508.19
2023-08-23T06:50:28.784Z,100499.41
2023-08-23T06:52:58.912Z,100502.28
2023-08-23T06:55:29.459Z,100498.56
2023-08-23T06:58:02.331Z,100491.16
2023-08-23T07:00:35.374Z,100494.44
2023-08-23T07:03:06.667Z,100494.44
2023-08-23T07:05:37.100Z,100498.69
2023-08-23T07:08:20.571Z,100486.47
2023-08-23T07:10:50.647Z,100490.34
2023-08-23T07:13:21.370Z,100487.69
2023-08-23T07:15:51.760Z,100481.44
2023-08-23T07:18:22.501Z,100478.09
2023-08-23T07:20:52.605Z,100478.78
2023-08-23T07:23:23.045Z,100481.50
2023-08-23T07:25:53.744Z,100489.94
2023-08-23T07:28:26.826Z,100479.19
2023-08-23T07:31:00.496Z,100494.19
2023-08-23T07:33:30.664Z,100492.06
2023-08-23T07:36:02.292Z,100495.03
2023-08-23T07:38:35.892Z,100488.09
2023-08-23T07:41:06.298Z,100497.75
2023-08-23T07:43:39.268Z,100491.16
2023-08-23T07:46:09.545Z,100485.13
2023-08-23T07:48:42.436Z,100496.84
2023-08-23T07:51:12.898Z,100492.81
2023-08-23T07:53:45.549Z,100494.34
2023-08-23T07:56:16.090Z,100496.91
2023-08-23T07:58:46.765Z,100499.47
2023-08-23T08:01:17.064Z,100504.38
2023-08-23T08:03:47.084Z,100498.41
2023-08-23T08:06:17.736Z,100490.56
2023-08-23T08:08:47.739Z,100489.00
2023-08-23T08:11:18.523Z,100490.66
2023-08-23T08:13:49.241Z,100488.25
2023-08-23T08:16:19.806Z,100489.09
2023-08-23T08:18:49.944Z,100487.09
2023-08-23T08:21:25.733Z,100485.88
2023-08-23T08:23:57.631Z,100497.22
2023-08-23T08:26:28.303Z,100494.75
2023-08-23T08:28:58.274Z,100486.00
2023-08-23T08:31:32.302Z,100488.56
2023-08-23T08:34:03.562Z,100489.16
2023-08-23T08:36:33.578Z,100489.63
2023-08-23T08:39:03.941Z,100496.53
2023-08-23T08:41:34.298Z,100493.66
2023-08-23T08:44:05.018Z,100495.78
2023-08-23T08:46:37.994Z,100500.16
2023-08-23T08:49:08.552Z,100501.19
2023-08-23T08:51:39.939Z,100503.31
2023-08-23T08:54:10.728Z,100509.59
2023-08-23T08:56:43.584Z,100517.13
2023-08-23T08:59:17.228Z,100520.91
2023-08-23T09:01:47.342Z,100521.34
2023-08-23T09:04:18.708Z,100530.97
2023-08-23T09:06:48.837Z,100544.72
2023-08-23T09:09:19.819Z,100554.34
2023-08-23T09:11:50.106Z,100555.66
2023-08-23T09:14:23.498Z,100562.38
2023-08-23T09:16:55.820Z,100561.97
2023-08-23T09:19:29.405Z,100566.56
2023-08-23T09:22:08.111Z,100571.16
2023-08-23T09:24:41.366Z,100569.94
2023-08-23T09:27:17.397Z,100573.69
2023-08-23T09:29:56.769Z,100576.47
2023-08-23T09:32:30.937Z,100576.41
2023-08-23T09:35:11.759Z,100587.06
2023-08-23T09:37:46.955Z,100587.50
2023-08-23T09:40:24.021Z,100590.22
2023-08-23T09:42:59.214Z,100587.75
2023-08-23T09:45:31.081Z,100586.69
2023-08-23T09:48:05.037Z,100584.63
2023-08-23T09:50:35.422Z,100582.56
2023-08-23T09:53:15.033Z,100592.34
2023-08-23T09:55:45.573Z,100593.84
2023-08-23T09:58:15.896Z,100594.06
2023-08-23T10:00:50.938Z,100594.06
2023-08-23T10:03:22.038Z,100593.91
2023-08-23T10:05:56.119Z,100594.75
2023-08-23T10:08:26.606Z,100593.50
2023-08-23T10:10:56.944Z,100596.81
2023-08-23T10:13:28.015Z,100605.19
2023-08-23T10:15:59.185Z,100605.63
2023-08-23T10:18:35.491Z,100612.72
2023-08-23T10:21:06.190Z,100610.66
2023-08-23T10:23:38.433Z,100618.13
2023-08-23T10:26:20.651Z,100619.41
2023-08-23T10:28:55.551Z,100616.06
2023-08-23T10:31:29.436Z,100631.91
2023-08-23T10:34:00.931Z,100629.00
2023-08-23T10:36:33.217Z,100636.53
2023-08-23T10:39:06.182Z,100625.25
2023-08-23T10:41:37.185Z,100626.50
2023-08-23T10:44:17.387Z,100626.91
2023-08-23T10:46:48.316Z,100619.84
2023-08-23T10:49:18.701Z,100631.53
2023-08-23T10:51:50.019Z,100633.19
2023-08-23T10:54:20.037Z,100638.19
2023-08-23T10:56:53.032Z,100642.38
2023-08-23T10:59:23.397Z,100643.81
2023-08-23T11:01:56.890Z,100646.13
2023-08-23T11:04:29.247Z,100650.91
2023-08-23T11:07:00.863Z,100656.09
2023-08-23T11:09:30.970Z,100658.00
2023-08-23T11:12:01.373Z,100662.78
2023-08-23T11:14:34.394Z,100656.34
2023-08-23T11:17:09.469Z,100659.69
2023-08-23T11:19:45.157Z,100673.84
2023-08-23T11:22:19.697Z,100678.63
2023-08-23T11:24:52.463Z,100679.47
2023-08-23T11:27:22.487Z,100676.13
2023-08-23T11:29:53.209Z,100685.31
2023-08-23T11:32:24.005Z,100685.31
2023-08-23T11:34:58.006Z,100682.78
2023-08-23T11:37:28.103Z,100685.31
2023-08-23T11:40:02.997Z,100689.06
2023-08-23T11:42:33.593Z,100697.38
2023-08-23T11:45:09.612Z,100702.38
2023-08-23T11:47:42.527Z,100717.81
2023-08-23T11:50:13.052Z,100721.34
2023-08-23T11:52:43.791Z,100719.91
2023-08-23T11:55:14.170Z,100716.34
2023-08-23T11:57:44.127Z,100729.06
2023-08-23T12:00:14.238Z,100719.06
2023-08-23T12:02:44.342Z,100720.94
2023-08-23T12:05:17.065Z,100719.06
2023-08-23T12:07:48.096Z,100721.16
2023-08-23T12:10:27.398Z,100720.75
2023-08-23T12:12:58.073Z,100711.78
2023-08-23T12:15:28.534Z,100717.81
2023-08-23T12:17:59.738Z,100722.19
2023-08-23T12:20:30.612Z,100720.13
2023-08-23T12:23:01.506Z,100722.81
2023-08-23T12:25:33.935Z,100725.31
2023-08-23T12:28:09.921Z,100723.66
2023-08-23T12:30:40.690Z,100722.84
2023-08-23T12:33:12.000Z,100718.22
2023-08-23T12:35:46.644Z,100717.59
2023-08-23T12:38:17.096Z,100724.06
2023-08-23T12:40:47.176Z,100725.75
2023-08-23T12:43:17.385Z,100721.97
2023-08-23T12:45:48.102Z,100727.19
2023-08-23T12:48:18.658Z,100734.09
2023-08-23T12:50:49.033Z,100737.41
2023-08-23T12:53:21.647Z,100744.28
2023-08-23T12:55:56.060Z,100730.31
2023-08-23T12:58:26.921Z,100741.38
2023-08-23T13:01:09.290Z,100745.09
2023-08-23T13:03:39.551Z,100733.66
2023-08-23T13:06:10.181Z,100742.19
2023-08-23T13:08:41.926Z,100736.56
2023-08-23T13:11:12.050Z,100737.81
2023-08-23T13:13:43.514Z,100747.41
2023-08-23T13:16:14.232Z,100744.91
2023-08-23T13:18:44.350Z,100743.84
2023-08-23T13:21:14.951Z,100744.25
2023-08-23T13:23:47.621Z,100746.13
2023-08-23T13:26:18.325Z,100749.50
2023-08-23T13:28:48.776Z,100746.97
2023-08-23T13:31:19.059Z,100747.59
2023-08-23T13:33:50.856Z,100746.97
2023-08-23T13:36:26.834Z,100748.19
2023-08-23T13:38:57.122Z,100740.50
2023-08-23T13:41:27.605Z,100748.22
2023-08-23T13:44:02.174Z,100753.66
2023-08-23T13:46:32.352Z,100747.41
2023-08-23T13:49:02.395Z,100745.28
2023-08-23T13:51:32.696Z,100750.91
2023-08-23T13:54:02.799Z,100750.47
2023-08-23T13:56:32.633Z,100749.84
2023-08-23T13:59:05.808Z,100748.16
2023-08-23T14:01:36.977Z,100742.53
2023-08-23T14:04:07.158Z,100743.56
2023-08-23T14:06:37.633Z,100741.91
2023-08-23T14:09:12.472Z,100739.00
2023-08-23T14:11:42.959Z,100736.31
2023-08-23T14:14:14.286Z,100746.50
2023-08-23T14:16:44.812Z,100753.59
2023-08-23T14:19:21.302Z,100755.44
2023-08-23T14:21:51.536Z,100755.66
2023-08-23T14:24:22.722Z,100761.25
2023-08-23T14:26:52.706Z,100760.22
2023-08-23T14:29:23.677Z,100755.84
2023-08-23T14:31:54.526Z,100749.19
2023-08-23T14:34:25.853Z,100750.84
2023-08-23T14:36:59.114Z,100748.13
2023-08-23T14:39:29.982Z,100752.28
2023-08-23T14:42:03.140Z,100744.63
2023-08-23T14:44:33.294Z,100744.78
2023-08-23T14:47:03.421Z,100737.94
2023-08-23T14:49:33.769Z,100733.75
2023-08-23T14:52:03.887Z,100729.81
2023-08-23T14:54:37.427Z,100727.69
2023-08-23T14:57:10.807Z,100722.69
2023-08-23T14:59:42.425Z,100722.91
2023-08-23T15:02:15.715Z,100722.28
2023-08-23T15:04:47.041Z,100719.38
2023-08-23T15:07:20.510Z,100711.88
2023-08-23T15:09:53.990Z,100717.28
2023-08-23T15:12:27.304Z,100717.09
2023-08-23T15:15:02.476Z,100722.69
2023-08-23T15:17:33.598Z,100721.03
2023-08-23T15:20:03.869Z,100719.34
2023-08-23T15:22:34.045Z,100731.84
2023-08-23T15:25:04.786Z,100723.09
2023-08-23T15:27:43.178Z,100735.59
2023-08-23T15:30:15.108Z,100734.78
2023-08-23T15:32:48.921Z,100735.59
2023-08-23T15:35:21.706Z,100733.94
2023-08-23T15:37:52.190Z,100739.34
2023-08-23T15:40:23.085Z,100735.81
2023-08-23T15:42:56.361Z,100744.13
2023-08-23T15:45:29.478Z,100746.84
2023-08-23T15:47:59.830Z,100751.44
2023-08-23T15:50:30.071Z,100750.34
2023-08-23T15:53:03.158Z,100746.41
2023-08-23T15:55:36.178Z,100739.53
2023-08-23T15:58:15.079Z,100740.56
2023-08-23T16:00:49.556Z,100750.75
2023-08-23T16:03:22.639Z,100740.97
2023-08-23T16:06:03.049Z,100742.19
2023-08-23T16:08:33.061Z,100739.31
2023-08-23T16:11:06.146Z,100728.88
2023-08-23T16:13:37.527Z,100715.13
2023-08-23T16:16:07.892Z,100710.91
2023-08-23T16:18:38.724Z,100703.78
2023-08-23T16:21:35.249Z,100701.94
2023-08-23T16:24:06.025Z,100702.28
2023-08-23T16:26:36.691Z,100697.72
2023-08-23T16:29:07.281Z,100696.28
2023-08-23T16:31:38.045Z,100681.69
2023-08-23T16:34:09.318Z,100677.53
2023-08-23T16:36:57.234Z,100673.38
2023-08-23T16:39:36.887Z,100681.69
2023-08-23T16:42:07.268Z,100679.81
2023-08-23T16:44:38.833Z,100673.16
2023-08-23T16:47:11.779Z,100672.94
2023-08-23T16:50:00.301Z,100663.78
2023-08-23T16:52:33.477Z,100661.31
2023-08-23T16:55:07.205Z,100671.72
2023-08-23T16:57:49.004Z,100677.13
2023-08-23T17:00:19.300Z,100673.16
2023-08-23T17:02:52.336Z,100663.38
2023-08-23T17:05:22.971Z,100645.94
2023-08-23T17:07:52.972Z,100640.91
2023-08-23T17:10:25.363Z,100646.72
2023-08-23T17:12:57.051Z,100648.00
2023-08-23T17:15:28.046Z,100643.00
2023-08-23T17:18:01.358Z,100635.91
2023-08-23T17:20:31.453Z,100632.81
2023-08-23T17:23:02.665Z,100640.91
2023-08-23T17:25:32.675Z,100636.94
2023-08-23T17:28:05.284Z,100639.66
2023-08-23T17:30:38.749Z,100631.31
2023-08-23T17:33:10.389Z,100631.53
2023-08-23T17:35:40.433Z,100631.72
2023-08-23T17:38:13.064Z,100625.50
2023-08-23T17:41:01.988Z,100630.06
2023-08-23T17:43:33.107Z,100627.56
2023-08-23T17:46:03.322Z,100625.50
2023-08-23T17:48:33.944Z,100631.50
2023-08-23T17:51:03.985Z,100629.16
2023-08-23T17:53:37.262Z,100620.41
2023-08-23T17:56:07.881Z,100618.75
2023-08-23T17:58:40.969Z,100613.72
2023-08-23T18:01:17.571Z,100614.13
2023-08-23T18:03:48.049Z,100616.63
2023-08-23T18:06:18.587Z,100622.88
2023-08-23T18:08:51.246Z,100619.16
2023-08-23T18:11:21.213Z,100617.06
2023-08-23T18:13:54.443Z,100621.63
2023-08-23T18:16:33.180Z,100615.41
2023-08-23T18:19:03.683Z,100609.16
2023-08-23T18:21:42.709Z,100611.22
2023-08-23T18:24:18.381Z,100608.72
2023-08-23T18:26:56.974Z,100601.66
2023-08-23T18:29:29.866Z,100604.19
2023-08-23T18:32:03.315Z,100601.47
2023-08-23T18:34:59.464Z,100598.78
2023-08-23T18:37:29.424Z,100598.94
2023-08-23T18:40:00.187Z,100592.50
2023-08-23T18:45:40.608Z,100587.50
2023-08-23T18:48:39.751Z,100591.63
2023-08-23T18:51:10.274Z,100603.97
2023-08-23T18:53:43.473Z,100604.97
2023-08-23T18:56:16.635Z,100610.16
2023-08-23T18:58:51.809Z,100620.31
2023-08-23T19:01:24.333Z,100608.31
2023-08-23T19:04:04.056Z,100607.47
2023-08-23T19:06:34.343Z,100605.38
2023-08-23T19:09:04.593Z,100599.97
2023-08-23T19:11:34.821Z,100617.88
2023-08-23T19:14:13.431Z,100618.69
2023-08-23T19:16:43.702Z,100632.63
2023-08-23T19:19:13.743Z,100639.28
2023-08-23T19:21:43.496Z,100640.69
2023-08-23T19:24:13.935Z,100639.81
2023-08-23T19:26:49.323Z,100636.50
2023-08-23T19:29:20.509Z,100643.16
2023-08-23T19:32:06.211Z,100645.22
2023-08-23T19:34:37.373Z,100663.53
2023-08-23T19:37:08.864Z,100659.34
2023-08-23T19:39:39.301Z,100670.16
2023-08-23T19:42:09.263Z,100670.59
2023-08-23T19:44:42.654Z,100687.19
2023-08-23T19:47:16.056Z,100686.56
2023-08-23T19:49:49.111Z,100688.00
2023-08-23T19:52:19.082Z,100690.13
2023-08-23T19:54:51.682Z,100687.59
2023-08-23T19:57:35.125Z,100681.31
2023-08-23T20:00:09.281Z,100681.16
2023-08-23T20:02:48.130Z,100694.63
2023-08-23T20:05:18.664Z,100680.66
2023-08-23T20:07:49.354Z,100675.03
2023-08-23T20:10:19.711Z,100667.56
2023-08-23T20:12:49.990Z,100678.38
2023-08-23T20:15:20.060Z,100677.34
2023-08-23T20:17:52.032Z,100692.50
2023-08-23T20:20:22.599Z,100694.19
2023-08-23T20:22:53.402Z,100688.91
2023-08-23T20:25:24.305Z,100683.78
2023-08-23T20:27:54.599Z,100691.88
2023-08-23T20:30:26.695Z,100697.28
2023-08-23T20:32:57.929Z,100701.75
2023-08-23T20:35:30.916Z,100714.25
2023-08-23T20:38:04.648Z,100702.03
2023-08-23T20:40:35.396Z,100702.78
2023-08-23T20:43:08.288Z,100702.41
2023-08-23T20:45:41.233Z,100693.88
2023-08-23T20:48:13.117Z,100689.03
2023-08-23T20:50:44.104Z,100690.31
2023-08-23T20:53:14.333Z,100676.56
2023-08-23T20:55:44.446Z,100681.56
2023-08-23T20:58:15.087Z,100686.34
2023-08-23T21:00:47.421Z,100682.34
2023-08-23T21:03:19.460Z,100681.53
2023-08-23T21:05:49.371Z,100678.19
2023-08-23T21:08:23.310Z,100695.22
2023-08-23T21:10:53.992Z,100688.59
2023-08-23T21:13:24.145Z,100690.84
2023-08-23T21:15:55.008Z,100682.06
2023-08-23T21:18:26.534Z,100677.91
2023-08-23T21:20:57.685Z,100672.72
2023-08-23T21:23:29.440Z,100671.47
2023-08-23T21:25:59.716Z,100678.50
2023-08-23T21:28:29.913Z,100681.03
2023-08-23T21:31:03.892Z,100681.00
2023-08-23T21:33:36.815Z,100689.09
2023-08-23T21:36:07.008Z,100686.81
2023-08-23T21:38:37.083Z,100688.06
2023-08-23T21:41:07.833Z,100692.81
2023-08-23T21:43:40.417Z,100693.84
2023-08-23T21:46:10.823Z,100702.97
2023-08-23T21:48:41.211Z,100709.16
2023-08-23T21:51:11.148Z,100721.25
2023-08-23T21:53:41.548Z,100729.34
2023-08-23T21:56:11.773Z,100739.50
2023-08-23T21:58:41.474Z,100751.13
2023-08-23T22:01:11.602Z,100746.56
2023-08-23T22:03:43.001Z,100748.41
2023-08-23T22:06:14.461Z,100756.53
2023-08-23T22:08:46.576Z,100766.88
2023-08-23T22:11:18.476Z,100769.38
2023-08-23T22:13:48.446Z,100769.38
2023-08-23T22:16:18.526Z,100764.84
2023-08-23T22:18:48.858Z,100764.84
2023-08-23T22:21:19.931Z,100760.84
2023-08-23T22:23:49.821Z,100764.19
2023-08-23T22:26:22.507Z,100781.81
2023-08-23T22:28:52.851Z,100780.78
2023-08-23T22:31:22.924Z,100783.47
2023-08-23T22:33:53.897Z,100795.94
2023-08-23T22:36:24.121Z,100798.66
2023-08-23T22:38:54.705Z,100802.63
2023-08-23T22:41:25.328Z,100805.34
2023-08-23T22:43:56.777Z,100809.25
2023-08-23T22:46:32.435Z,100817.81
2023-08-23T22:49:03.017Z,100822.56
2023-08-23T22:51:32.963Z,100821.53
2023-08-23T22:54:03.277Z,100820.50
2023-08-23T22:56:33.192Z,100826.94
2023-08-23T22:59:03.176Z,100829.25
2023-08-23T23:01:36.528Z,100833.81
2023-08-23T23:04:06.659Z,100838.84
2023-08-23T23:06:36.404Z,100838.84
2023-08-23T23:09:07.187Z,100840.50
2023-08-23T23:11:37.770Z,100847.13
2023-08-23T23:14:08.385Z,100847.78
2023-08-23T23:16:38.652Z,100847.78
2023-08-23T23:19:09.027Z,100852.16
2023-08-23T23:21:39.022Z,100848.81
2023-08-23T23:24:09.116Z,100856.34
2023-08-23T23:26:39.072Z,100869.41
2023-08-23T23:29:11.961Z,100863.34
2023-08-23T23:31:42.989Z,100873.66
2023-08-23T23:34:13.485Z,100869.50
2023-08-23T23:36:43.503Z,100866.97
2023-08-23T23:39:13.877Z,100870.69
2023-08-23T23:41:44.511Z,100874.81
2023-08-23T23:44:15.041Z,100877.72
2023-08-23T23:46:48.458Z,100881.06
2023-08-23T23:49:18.513Z,100890.94
2023-08-23T23:51:49.258Z,100898.00
2023-08-23T23:54:19.600Z,100901.53
2023-08-23T23:56:51.239Z,100889.22
2023-08-23T23:59:21.700Z,100872.84
